Time;durP1;ratioP1;P1;durP2;ratioP2;P2;SDS_P1;SDS_P2;PMS_P1;PMS_P2;Temp;Humidity;BMP_temperature;BMP_pressure;BME280_temperature;BME280_humidity;BME280_pressure;Samples;Min_cycle;Max_cycle;Signal;HPM_P1;HPM_P2
2023/01/10 00:00:55;;;;;;;2.33;1.20;;;;;;;4.35;100.00;97690.56;15302936;19;20262;-81
2023/01/10 00:06:21;;;;;;;1.95;1.00;;;;;;;4.40;100.00;97697.16;15296637;19;20031;-81
2023/01/10 00:17:27;;;;;;;1.30;1.00;;;;;;;4.42;100.00;97703.19;15300943;19;20011;-81
2023/01/10 00:22:52;;;;;;;1.90;1.25;;;;;;;4.43;100.00;97710.22;15299223;19;20351;-79
2023/01/10 00:28:22;;;;;;;2.17;1.10;;;;;;;4.41;100.00;97717.50;15298015;19;20505;-79
2023/01/10 00:33:48;;;;;;;2.60;1.50;;;;;;;4.40;100.00;97726.50;15286637;19;20496;-80
2023/01/10 00:39:14;;;;;;;2.58;1.20;;;;;;;4.46;100.00;97741.09;15282278;19;20074;-80
2023/01/10 00:44:41;;;;;;;2.30;1.42;;;;;;;4.47;100.00;97758.78;15291413;19;20031;-81
2023/01/10 00:50:07;;;;;;;2.28;1.10;;;;;;;4.53;100.00;97747.53;15297667;19;20018;-81
2023/01/10 00:55:39;;;;;;;1.58;1.10;;;;;;;4.49;100.00;97762.16;15297339;19;20102;-81
2023/01/10 01:01:07;;;;;;;2.97;1.40;;;;;;;4.48;100.00;97771.16;15299040;19;20679;-81
2023/01/10 01:06:31;;;;;;;2.33;1.30;;;;;;;4.53;100.00;97784.91;15311607;19;20017;-82
2023/01/10 01:11:56;;;;;;;3.05;1.30;;;;;;;4.54;100.00;97804.44;15306539;19;20006;-80
2023/01/10 01:17:23;;;;;;;1.92;1.20;;;;;;;4.52;100.00;97801.03;15310229;19;20018;-81
2023/01/10 01:22:48;;;;;;;2.47;1.25;;;;;;;4.46;100.00;97794.44;15311538;19;20060;-81
2023/01/10 01:28:13;;;;;;;3.33;1.33;;;;;;;4.40;100.00;97806.50;15312910;19;20862;-80
2023/01/10 01:33:40;;;;;;;3.53;1.60;;;;;;;4.34;100.00;97817.72;15310112;19;20010;-81
2023/01/10 01:39:05;;;;;;;2.53;1.27;;;;;;;4.11;100.00;97833.09;15315615;19;20020;-82
2023/01/10 01:44:33;;;;;;;2.63;1.60;;;;;;;3.88;100.00;97843.09;15309078;19;20038;-80
2023/01/10 01:50:01;;;;;;;3.25;1.70;;;;;;;3.76;100.00;97853.84;15327071;19;20015;-81
2023/01/10 01:55:29;;;;;;;2.40;1.77;;;;;;;3.74;100.00;97862.94;15324143;19;20025;-80
2023/01/10 02:00:53;;;;;;;2.92;1.92;;;;;;;3.69;100.00;97874.84;15311938;19;20010;-80
2023/01/10 02:06:22;;;;;;;2.80;1.70;;;;;;;3.68;100.00;97875.81;15306558;19;20035;-80
2023/01/10 02:11:47;;;;;;;3.38;1.80;;;;;;;3.65;100.00;97883.19;15305659;19;20027;-80
2023/01/10 02:17:13;;;;;;;4.82;1.65;;;;;;;3.65;100.00;97881.41;15300923;19;20014;-79
2023/01/10 02:23:18;;;;;;;2.40;1.70;;;;;;;3.65;100.00;97881.41;15299528;19;20078;-78
2023/01/10 02:29:23;;;;;;;3.60;1.70;;;;;;;3.51;100.00;97903.03;15305550;19;20015;-79
2023/01/10 02:35:01;;;;;;;4.15;2.10;;;;;;;3.55;100.00;97912.47;15299141;19;20054;-80
2023/01/10 02:40:32;;;;;;;3.22;1.60;;;;;;;3.59;100.00;97919.19;15304754;19;20011;-81
2023/01/10 02:46:02;;;;;;;2.83;1.80;;;;;;;3.59;100.00;97924.53;15303629;19;20022;-84
2023/01/10 02:51:32;;;;;;;4.38;1.90;;;;;;;3.62;100.00;97928.78;15301414;19;20014;-81
2023/01/10 02:57:36;;;;;;;3.90;1.70;;;;;;;3.62;100.00;97928.78;15295595;19;20390;-81
2023/01/10 03:03:17;;;;;;;2.72;1.60;;;;;;;3.52;100.00;97936.69;15328680;19;20018;-82
2023/01/10 03:08:48;;;;;;;4.23;1.87;;;;;;;3.47;100.00;97937.06;15351270;19;20025;-84
2023/01/10 03:14:18;;;;;;;3.23;1.57;;;;;;;3.59;100.00;97964.47;15297749;19;20361;-80
2023/01/10 03:19:48;;;;;;;4.20;1.40;;;;;;;3.64;100.00;97956.13;15293322;19;20473;-81
2023/01/10 03:25:18;;;;;;;3.75;1.50;;;;;;;3.70;100.00;97975.06;15294225;19;20031;-81
2023/01/10 03:30:51;;;;;;;3.00;1.43;;;;;;;3.85;100.00;97977.44;15341113;19;20014;-78
2023/01/10 03:36:25;;;;;;;2.92;1.60;;;;;;;3.85;100.00;97983.63;15344723;19;20003;-81
2023/01/10 03:41:59;;;;;;;2.97;1.70;;;;;;;3.89;100.00;97994.88;15356996;19;20007;-80
2023/01/10 03:47:32;;;;;;;2.13;1.23;;;;;;;3.95;100.00;98012.16;15358273;19;20022;-83
2023/01/10 03:52:56;;;;;;;3.70;1.50;;;;;;;4.04;100.00;98029.19;15325583;19;20018;-76
2023/01/10 03:58:26;;;;;;;3.13;1.25;;;;;;;4.10;100.00;98031.31;15335077;19;20018;-78
2023/01/10 04:03:51;;;;;;;1.95;1.30;;;;;;;4.13;100.00;98060.41;15292703;19;20027;-78
2023/01/10 04:09:16;;;;;;;2.80;1.10;;;;;;;4.21;100.00;98060.59;15299577;19;20069;-77
2023/01/10 04:14:48;;;;;;;1.95;1.20;;;;;;;4.23;100.00;98069.31;15292642;19;20010;-76
2023/01/10 04:20:13;;;;;;;2.13;1.15;;;;;;;4.30;100.00;98072.31;15290214;19;20011;-79
2023/01/10 04:25:38;;;;;;;2.05;1.10;;;;;;;4.41;100.00;98079.41;15282220;19;20027;-77
2023/01/10 04:31:06;;;;;;;1.65;1.02;;;;;;;4.41;100.00;98084.75;15281976;19;20054;-79
2023/01/10 04:36:37;;;;;;;1.73;0.95;;;;;;;4.50;100.00;98099.09;15292009;19;20457;-78
2023/01/10 04:42:03;;;;;;;1.85;1.00;;;;;;;4.56;100.00;98114.59;15305061;19;20405;-79
2023/01/10 04:47:30;;;;;;;2.15;0.98;;;;;;;4.65;100.00;98120.94;15311697;19;20010;-76
2023/01/10 04:52:55;;;;;;;2.83;0.90;;;;;;;4.77;100.00;98130.56;15304589;19;20022;-77
2023/01/10 04:58:19;;;;;;;1.63;0.80;;;;;;;4.78;100.00;98134.94;15304046;19;20363;-79
2023/01/10 05:03:49;;;;;;;3.25;1.00;;;;;;;4.71;100.00;98133.78;15296371;19;20696;-78
2023/01/10 05:09:14;;;;;;;1.85;1.10;;;;;;;4.69;100.00;98163.28;15304806;19;20480;-79
2023/01/10 05:14:39;;;;;;;2.42;1.27;;;;;;;4.66;100.00;98162.66;15302241;19;20036;-76
2023/01/10 05:20:06;;;;;;;2.13;1.10;;;;;;;4.58;100.00;98169.50;15306400;19;20020;-79
2023/01/10 05:25:31;;;;;;;1.77;0.90;;;;;;;4.54;100.00;98191.25;15304066;19;20377;-77
2023/01/10 05:30:55;;;;;;;2.17;1.10;;;;;;;4.47;100.00;98201.56;15285925;19;20090;-77
2023/01/10 05:36:23;;;;;;;2.88;1.13;;;;;;;4.52;100.00;98225.19;15280843;19;20035;-77
2023/01/10 05:41:48;;;;;;;1.70;1.00;;;;;;;4.53;100.00;98242.91;15288931;19;20370;-77
2023/01/10 05:47:13;;;;;;;2.67;1.20;;;;;;;4.43;100.00;98258.81;15291428;19;20078;-77
2023/01/10 05:52:44;;;;;;;2.33;1.35;;;;;;;4.36;100.00;98274.47;15289710;19;20014;-78
2023/01/10 05:58:10;;;;;;;2.65;1.30;;;;;;;4.36;100.00;98292.31;15298295;19;20072;-77
2023/01/10 06:03:35;;;;;;;2.22;1.30;;;;;;;4.30;100.00;98302.50;15301548;19;20014;-77
2023/01/10 06:09:03;;;;;;;3.28;1.50;;;;;;;4.25;100.00;98309.16;15298118;19;20018;-79
2023/01/10 06:14:27;;;;;;;6.13;1.77;;;;;;;4.20;100.00;98325.53;15304997;19;20021;-79
2023/01/10 06:19:52;;;;;;;5.32;1.80;;;;;;;4.16;100.00;98338.28;15305921;19;20015;-78
2023/01/10 06:25:20;;;;;;;2.78;1.45;;;;;;;4.16;100.00;98348.09;15302465;19;20373;-78
2023/01/10 06:30:45;;;;;;;3.10;1.50;;;;;;;4.19;100.00;98358.50;15292639;19;20440;-78
2023/01/10 06:36:10;;;;;;;3.72;1.60;;;;;;;4.14;100.00;98364.22;15299685;19;20021;-78
2023/01/10 09:16:53;;;;;;;2.72;1.20;;;;;;;4.62;100.00;98581.00;15301570;19;20002;-79
2023/01/10 09:22:18;;;;;;;5.65;1.10;;;;;;;4.68;100.00;98577.88;15314609;19;20358;-79
2023/01/10 09:27:42;;;;;;;3.42;1.20;;;;;;;4.73;100.00;98582.84;15303421;19;20014;-80
2023/01/10 09:33:10;;;;;;;6.10;1.60;;;;;;;4.72;100.00;98603.34;15312188;19;20567;-79
2023/01/10 09:38:34;;;;;;;4.13;1.50;;;;;;;4.81;100.00;98617.78;15313767;19;20020;-79
2023/01/10 09:44:05;;;;;;;3.30;1.25;;;;;;;4.82;100.00;98630.19;15299356;19;20002;-81
2023/01/10 09:49:47;;;;;;;5.18;1.50;;;;;;;4.85;100.00;98632.63;15317909;19;20010;-81
2023/01/10 09:55:21;;;;;;;3.03;1.20;;;;;;;4.93;100.00;98640.88;15307315;19;20070;-80
2023/01/10 10:00:52;;;;;;;4.93;1.20;;;;;;;4.99;100.00;98638.69;15315886;19;20022;-80
2023/01/10 10:06:20;;;;;;;5.43;1.35;;;;;;;5.04;100.00;98633.84;15324506;19;20022;-80
2023/01/10 10:12:03;;;;;;;5.30;1.52;;;;;;;5.05;100.00;98654.22;15317518;19;20046;-79
2023/01/10 10:17:49;;;;;;;5.05;1.50;;;;;;;5.09;100.00;98639.66;15280064;19;20436;-77
2023/01/10 10:23:32;;;;;;;5.75;2.00;;;;;;;5.15;100.00;98595.59;15311713;19;20014;-79
2023/01/10 10:29:17;;;;;;;5.32;1.52;;;;;;;5.23;100.00;98631.38;15313178;19;20011;-83
2023/01/10 10:34:47;;;;;;;3.80;1.25;;;;;;;5.29;100.00;98619.41;15311125;19;20019;-80
2023/01/10 10:40:26;;;;;;;4.55;1.35;;;;;;;5.34;100.00;98603.00;15313702;19;20015;-79
2023/01/10 10:45:48;;;;;;;3.97;1.20;;;;;;;5.46;100.00;98614.50;15311169;19;20343;-79
2023/01/10 10:51:20;;;;;;;3.70;1.30;;;;;;;5.47;100.00;98622.38;15304172;19;20043;-79
2023/01/10 10:56:48;;;;;;;4.65;1.40;;;;;;;5.57;100.00;98610.97;15305079;19;20124;-79
2023/01/10 11:02:23;;;;;;;5.38;1.50;;;;;;;5.60;100.00;98622.25;15288145;19;20347;-79
2023/01/10 11:07:48;;;;;;;3.88;1.38;;;;;;;5.67;100.00;98633.31;15287400;19;20018;-78
2023/01/10 11:13:22;;;;;;;2.67;1.20;;;;;;;5.66;100.00;98637.78;15290975;19;20010;-79
2023/01/10 11:18:53;;;;;;;3.22;1.13;;;;;;;5.65;100.00;98644.09;15313913;19;20043;-79
2023/01/10 11:24:37;;;;;;;3.03;1.00;;;;;;;5.59;100.00;98639.25;15315732;19;20010;-79
2023/01/10 11:30:08;;;;;;;3.88;1.30;;;;;;;5.63;100.00;98642.53;15287820;19;20010;-79
2023/01/10 11:35:35;;;;;;;3.13;1.00;;;;;;;5.58;100.00;98640.25;15288167;19;20018;-79
2023/01/10 11:41:03;;;;;;;4.50;1.20;;;;;;;5.59;100.00;98663.31;15287460;19;20014;-79
2023/01/10 11:46:31;;;;;;;4.07;1.30;;;;;;;5.52;100.00;98652.28;15288256;19;20014;-77
2023/01/10 11:51:58;;;;;;;3.95;1.20;;;;;;;5.53;100.00;98653.09;15285475;19;20026;-79
2023/01/10 11:57:26;;;;;;;4.82;1.52;;;;;;;5.52;100.00;98652.28;15282561;19;20074;-78
2023/01/10 12:02:55;;;;;;;3.55;1.20;;;;;;;5.55;100.00;98656.50;15281727;19;20039;-77
2023/01/10 12:08:30;;;;;;;3.28;1.25;;;;;;;5.52;100.00;98662.97;15286541;19;20410;-76
2023/01/10 12:13:57;;;;;;;3.08;1.27;;;;;;;5.62;100.00;98656.88;15282291;19;20400;-76
2023/01/10 12:19:31;;;;;;;4.03;1.40;;;;;;;5.66;100.00;98663.69;15282310;19;20025;-77
2023/01/10 12:24:58;;;;;;;4.05;1.42;;;;;;;5.71;100.00;98670.34;15278582;19;20016;-77
2023/01/10 12:30:26;;;;;;;3.63;1.02;;;;;;;5.75;100.00;98673.63;15286161;19;20018;-77
2023/01/10 12:35:58;;;;;;;3.50;1.25;;;;;;;5.78;100.00;98668.03;15279405;19;20094;-76
2023/01/10 12:47:20;;;;;;;2.85;1.20;;;;;;;5.85;100.00;98669.22;15284779;19;20011;-77
2023/01/10 12:52:54;;;;;;;4.32;1.25;;;;;;;5.83;100.00;98663.13;15281929;19;20045;-78
2023/01/10 12:58:23;;;;;;;3.22;1.10;;;;;;;5.86;100.00;98654.03;15286017;19;20010;-77
2023/01/10 13:03:49;;;;;;;3.95;1.20;;;;;;;5.86;100.00;98656.72;15296450;19;20015;-77
2023/01/10 13:09:20;;;;;;;4.18;1.15;;;;;;;5.83;100.00;98670.31;15294559;19;20017;-77
2023/01/10 13:14:53;;;;;;;3.85;1.25;;;;;;;5.80;100.00;98686.59;15290354;19;20490;-77
2023/01/10 13:20:40;;;;;;;1.70;0.80;;;;;;;5.77;100.00;98682.38;15295472;19;20082;-77
2023/01/10 13:26:10;;;;;;;2.80;0.93;;;;;;;5.74;100.00;98687.94;15296192;19;20025;-78
2023/01/10 13:31:36;;;;;;;2.30;1.10;;;;;;;5.68;100.00;98678.59;15289879;19;20049;-78
2023/01/10 13:37:05;;;;;;;2.05;0.85;;;;;;;5.64;100.00;98695.03;15295640;19;20023;-78
2023/01/10 13:48:31;;;;;;;3.22;1.10;;;;;;;5.57;100.00;98705.34;15294722;19;20035;-78
2023/01/10 13:53:59;;;;;;;2.47;1.00;;;;;;;5.57;100.00;98696.50;15293848;19;20053;-78
2023/01/10 14:05:35;;;;;;;2.80;1.08;;;;;;;5.43;100.00;98701.13;15290257;19;20406;-78
2023/01/10 14:11:14;;;;;;;2.80;0.98;;;;;;;5.43;100.00;98694.91;15285925;19;20812;-77
2023/01/10 14:16:42;;;;;;;2.83;1.10;;;;;;;5.43;100.00;98692.22;15290457;19;20018;-78
2023/01/10 14:22:11;;;;;;;3.25;1.05;;;;;;;5.43;100.00;98701.13;15290518;19;20070;-78
2023/01/10 14:27:45;;;;;;;2.88;1.20;;;;;;;5.40;100.00;98725.41;15306237;19;20006;-78
2023/01/10 14:33:14;;;;;;;3.10;1.10;;;;;;;5.43;100.00;98718.94;15298563;19;20030;-78
2023/01/10 14:38:42;;;;;;;3.45;1.10;;;;;;;5.40;100.00;98712.91;15289385;19;20010;-78
2023/01/10 14:44:12;;;;;;;3.42;1.20;;;;;;;5.37;100.00;98702.44;15284801;19;20015;-77
2023/01/10 14:49:50;;;;;;;3.65;1.00;;;;;;;5.35;100.00;98708.91;15290442;19;20011;-77
2023/01/10 14:55:22;;;;;;;3.50;1.20;;;;;;;5.29;100.00;98706.69;15285548;19;20481;-77
2023/01/10 15:00:48;;;;;;;3.45;1.20;;;;;;;5.20;100.00;98698.44;15289853;19;20588;-78
2023/01/10 15:06:21;;;;;;;4.07;1.50;;;;;;;5.16;100.00;98704.13;15294736;19;20010;-78
2023/01/10 15:11:50;;;;;;;3.05;1.27;;;;;;;5.12;100.00;98700.84;15311828;19;20485;-79
2023/01/10 15:17:27;;;;;;;3.88;1.40;;;;;;;5.08;100.00;98704.72;15302039;19;20022;-78
2023/01/10 15:22:58;;;;;;;4.90;1.30;;;;;;;5.04;100.00;98713.94;15301300;19;20010;-79
2023/01/10 15:28:26;;;;;;;3.35;1.38;;;;;;;5.03;100.00;98696.22;15306762;19;20018;-80
2023/01/10 15:33:55;;;;;;;4.45;1.50;;;;;;;4.98;100.00;98687.72;15307838;19;20019;-77
2023/01/10 15:39:28;;;;;;;5.05;1.45;;;;;;;4.90;100.00;98678.47;15290384;19;20493;-78
2023/01/10 15:44:57;;;;;;;4.10;1.70;;;;;;;4.77;100.00;98678.59;15287618;19;20470;-76
2023/01/10 15:50:32;;;;;;;2.88;1.13;;;;;;;4.75;100.00;98685.03;15291020;19;20089;-77
2023/01/10 15:56:09;;;;;;;4.25;1.30;;;;;;;4.69;100.00;98675.66;15301255;19;20015;-77
2023/01/10 16:01:38;;;;;;;3.92;1.50;;;;;;;4.68;100.00;98678.44;15293139;19;20003;-77
2023/01/10 16:07:10;;;;;;;4.13;1.85;;;;;;;4.68;100.00;98683.78;15296799;19;20023;-79
2023/01/10 16:18:27;;;;;;;5.13;2.35;;;;;;;4.57;100.00;98688.09;15294538;19;20042;-78
2023/01/10 16:23:52;;;;;;;4.20;1.38;;;;;;;4.60;100.00;98681.69;15289878;19;20010;-79
2023/01/10 16:29:19;;;;;;;4.18;1.65;;;;;;;4.59;100.00;98664.84;15300449;19;20011;-78
2023/01/10 16:34:47;;;;;;;5.68;1.60;;;;;;;4.59;100.00;98671.97;15306667;19;20367;-84
2023/01/10 16:40:24;;;;;;;5.40;1.55;;;;;;;4.57;100.00;98669.44;15302984;19;20086;-79
2023/01/10 16:45:51;;;;;;;5.15;1.63;;;;;;;4.50;100.00;98673.53;15307153;19;20025;-79
2023/01/10 16:51:26;;;;;;;5.25;1.90;;;;;;;4.41;100.00;98655.56;15314246;19;20483;-78
2023/01/10 16:56:51;;;;;;;5.05;2.13;;;;;;;4.30;100.00;98659.88;15306016;19;20022;-77
2023/01/10 17:02:24;;;;;;;6.10;2.00;;;;;;;4.19;100.00;98662.50;15311465;19;20061;-80
2023/01/10 17:07:52;;;;;;;3.53;1.92;;;;;;;4.08;100.00;98663.31;15310022;19;20425;-77
2023/01/10 17:13:18;;;;;;;5.28;2.30;;;;;;;3.98;100.00;98665.81;15308896;19;20009;-79
2023/01/10 17:18:50;;;;;;;4.65;1.90;;;;;;;3.92;100.00;98660.94;15294810;19;20054;-77
2023/01/10 17:24:19;;;;;;;7.13;2.25;;;;;;;3.84;100.00;98656.16;15299169;19;20025;-76
2023/01/10 17:29:44;;;;;;;7.28;2.28;;;;;;;3.75;100.00;98654.19;15306158;19;20014;-78
2023/01/10 17:35:11;;;;;;;4.93;2.17;;;;;;;3.67;100.00;98651.22;15299929;19;20037;-78
2023/01/10 17:40:38;;;;;;;4.03;1.88;;;;;;;3.60;100.00;98656.13;15298379;19;20010;-77
2023/01/10 17:46:05;;;;;;;6.90;2.00;;;;;;;3.57;100.00;98658.16;15292385;19;20074;-76
2023/01/10 17:51:32;;;;;;;6.70;1.83;;;;;;;3.50;100.00;98658.63;15293564;19;20019;-77
2023/01/10 17:57:08;;;;;;;4.45;1.88;;;;;;;3.48;100.00;98654.34;15297481;19;20051;-76
2023/01/10 18:02:48;;;;;;;5.47;2.20;;;;;;;3.43;100.00;98644.03;15303612;19;20345;-77
2023/01/10 18:08:24;;;;;;;6.13;2.05;;;;;;;3.38;100.00;98636.38;15310964;19;20774;-78
2023/01/10 18:13:53;;;;;;;8.52;2.22;;;;;;;3.38;100.00;98635.53;15299461;19;20038;-75
2023/01/10 18:19:19;;;;;;;8.18;2.63;;;;;;;3.36;100.00;98642.78;15298728;19;20183;-76
2023/01/10 18:24:44;;;;;;;6.78;2.25;;;;;;;3.32;100.00;98631.50;15311106;19;20062;-76
2023/01/10 18:30:17;;;;;;;8.77;2.55;;;;;;;3.30;100.00;98627.22;15299728;19;20073;-77
2023/01/10 18:35:42;;;;;;;5.85;2.08;;;;;;;3.29;100.00;98623.72;15306599;19;20027;-76
2023/01/10 18:41:07;;;;;;;7.50;2.15;;;;;;;3.29;100.00;98614.91;15312754;19;20029;-77
2023/01/10 18:46:44;;;;;;;6.30;2.00;;;;;;;3.22;100.00;98619.81;15323061;19;20016;-78
2023/01/10 18:52:09;;;;;;;5.72;2.10;;;;;;;3.18;100.00;98610.34;15305387;19;20013;-78
2023/01/10 18:57:38;;;;;;;6.93;2.05;;;;;;;3.15;100.00;98611.41;15314616;19;20346;-76
2023/01/10 19:03:09;;;;;;;5.65;2.13;;;;;;;3.12;100.00;98600.97;15319707;19;20034;-78
2023/01/10 19:08:33;;;;;;;5.88;2.00;;;;;;;3.13;100.00;98596.50;15306481;19;20020;-78
2023/01/10 19:13:59;;;;;;;9.48;2.60;;;;;;;3.19;100.00;98588.09;15309803;19;20035;-79
2023/01/10 19:20:07;;;;;;;8.38;2.85;;;;;;;3.24;100.00;98581.47;15302974;19;20046;-76
2023/01/10 19:25:56;;;;;;;7.20;2.45;;;;;;;3.32;100.00;98575.59;15317065;19;20006;-76
2023/01/10 19:31:27;;;;;;;6.35;2.30;;;;;;;3.34;100.00;98576.31;15340250;19;20237;-79
2023/01/10 19:36:56;;;;;;;7.00;2.00;;;;;;;3.36;100.00;98568.22;15334197;19;20010;-80
2023/01/10 19:42:27;;;;;;;4.75;1.98;;;;;;;3.32;100.00;98562.28;15339605;19;20415;-78
2023/01/10 19:47:51;;;;;;;8.80;2.53;;;;;;;3.34;100.00;98560.34;15334527;19;20019;-79
2023/01/10 19:53:22;;;;;;;6.82;2.08;;;;;;;3.34;100.00;98555.03;15333797;19;20010;-78
2023/01/10 19:58:57;;;;;;;6.20;1.90;;;;;;;3.33;100.00;98541.81;15331775;19;20006;-77
2023/01/10 20:04:22;;;;;;;7.78;2.05;;;;;;;3.34;100.00;98547.03;15323234;19;20010;-76
2023/01/10 20:09:48;;;;;;;6.55;2.08;;;;;;;3.35;100.00;98546.03;15311248;19;20381;-77
2023/01/10 20:15:16;;;;;;;7.53;2.17;;;;;;;3.39;100.00;98528.88;15300451;19;20011;-76
2023/01/10 20:20:48;;;;;;;6.28;2.00;;;;;;;3.37;100.00;98528.16;15286429;19;20022;-77
2023/01/10 20:26:15;;;;;;;8.85;2.20;;;;;;;3.36;100.00;98520.28;15289161;19;20019;-76
2023/01/10 20:31:46;;;;;;;9.07;2.50;;;;;;;3.37;100.00;98512.16;15275810;19;20019;-76
2023/01/10 20:37:11;;;;;;;6.73;2.33;;;;;;;3.36;100.00;98505.13;15287297;19;20014;-77
2023/01/10 20:42:36;;;;;;;8.82;2.05;;;;;;;3.35;100.00;98508.75;15276322;19;20017;-76
2023/01/10 20:48:03;;;;;;;8.35;2.20;;;;;;;3.34;100.00;98507.09;15288698;19;20020;-77
2023/01/10 20:53:28;;;;;;;7.63;2.10;;;;;;;3.37;100.00;98512.16;15285915;19;20018;-77
2023/01/10 20:58:55;;;;;;;8.27;2.55;;;;;;;3.41;100.00;98501.28;15285195;19;20432;-76
2023/01/10 21:04:21;;;;;;;6.18;1.90;;;;;;;3.42;100.00;98487.84;15272377;19;20417;-75
2023/01/10 21:09:46;;;;;;;7.05;2.17;;;;;;;3.47;100.00;98484.88;15284395;19;20014;-76
2023/01/10 21:15:12;;;;;;;7.20;1.92;;;;;;;3.50;100.00;98473.97;15277018;19;20078;-76
2023/01/10 21:20:48;;;;;;;6.90;1.88;;;;;;;3.58;100.00;98471.59;15289918;19;20029;-77
2023/01/10 21:26:15;;;;;;;8.10;2.00;;;;;;;3.64;100.00;98464.97;15301848;19;20013;-77
2023/01/10 21:31:41;;;;;;;7.47;2.10;;;;;;;3.67;100.00;98460.25;15299377;19;20541;-78
2023/01/10 21:37:08;;;;;;;6.97;1.73;;;;;;;3.76;100.00;98455.16;15299613;19;20011;-77
2023/01/10 21:42:41;;;;;;;4.80;1.83;;;;;;;3.79;100.00;98444.28;15296236;19;20551;-77
2023/01/10 21:48:06;;;;;;;6.45;1.88;;;;;;;3.86;100.00;98437.50;15300044;19;20364;-76
2023/01/10 21:53:34;;;;;;;6.63;1.90;;;;;;;3.88;100.00;98424.06;15296664;19;20015;-77
2023/01/10 21:59:00;;;;;;;3.90;1.77;;;;;;;3.91;100.00;98423.81;15274836;19;20009;-76
2023/01/10 22:04:26;;;;;;;5.63;1.85;;;;;;;3.93;100.00;98425.41;15286047;19;20023;-77
2023/01/10 22:09:53;;;;;;;5.72;2.03;;;;;;;3.94;100.00;98408.44;15300812;19;20033;-76
2023/01/10 22:15:19;;;;;;;5.22;1.90;;;;;;;3.97;100.00;98400.19;15292682;19;20011;-77
2023/01/10 22:20:54;;;;;;;5.95;2.00;;;;;;;3.98;100.00;98388.56;15294864;19;20451;-77
2023/01/10 22:26:22;;;;;;;3.97;1.60;;;;;;;3.99;100.00;98370.78;15300798;19;20015;-78
2023/01/10 22:31:47;;;;;;;4.93;1.63;;;;;;;4.01;100.00;98367.00;15295306;19;20014;-77
2023/01/10 22:37:13;;;;;;;4.95;1.70;;;;;;;4.03;100.00;98352.72;15290513;19;20031;-77
2023/01/10 22:42:40;;;;;;;3.90;1.67;;;;;;;4.06;100.00;98352.47;15290670;19;20073;-78
2023/01/10 22:48:05;;;;;;;3.78;1.50;;;;;;;4.10;100.00;98337.91;15293794;19;20010;-78
2023/01/10 22:53:30;;;;;;;5.07;1.58;;;;;;;4.11;100.00;98334.28;15289115;19;20010;-79
2023/01/10 22:58:57;;;;;;;4.70;1.30;;;;;;;4.11;100.00;98329.81;15296130;19;20011;-78
2023/01/10 23:04:22;;;;;;;4.03;1.50;;;;;;;4.14;100.00;98326.88;15299059;19;20319;-78
2023/01/10 23:09:47;;;;;;;3.25;1.45;;;;;;;4.16;100.00;98321.44;15296253;19;20024;-79
2023/01/10 23:15:16;;;;;;;3.45;1.42;;;;;;;4.19;100.00;98325.69;15297588;19;20014;-78
2023/01/10 23:20:47;;;;;;;3.65;1.50;;;;;;;4.18;100.00;98331.97;15291363;19;20015;-78
2023/01/10 23:26:13;;;;;;;3.73;1.30;;;;;;;4.21;100.00;98324.56;15291760;19;20031;-78
2023/01/10 23:31:41;;;;;;;3.40;1.30;;;;;;;4.21;100.00;98316.56;15291529;19;20031;-77
2023/01/10 23:37:06;;;;;;;5.53;1.20;;;;;;;4.20;100.00;98314.03;15292741;19;20016;-77
2023/01/10 23:42:31;;;;;;;4.00;1.50;;;;;;;4.19;100.00;98304.34;15287484;19;20407;-77
2023/01/10 23:48:05;;;;;;;2.75;1.30;;;;;;;4.12;100.00;98301.31;15311370;19;20019;-79
2023/01/10 23:53:30;;;;;;;3.53;1.20;;;;;;;4.08;100.00;98297.19;15311429;19;20003;-78
2023/01/10 23:59:00;;;;;;;2.05;1.10;;;;;;;4.04;100.00;98279.78;15294934;19;20027;-77
